sensor_id;sensor_type;location;lat;lon;timestamp;P1;durP1;ratioP1;P2;durP2;ratioP2
17858;SDS011;35426;30.698;104.050;2023-03-16T00:00:05;31.00;;;10.30;;
17858;SDS011;35426;30.698;104.050;2023-03-16T00:02:48;29.17;;;10.43;;
17858;SDS011;35426;30.698;104.050;2023-03-16T00:05:29;32.13;;;10.77;;
17858;SDS011;35426;30.698;104.050;2023-03-16T00:08:06;30.97;;;9.23;;
17858;SDS011;35426;30.698;104.050;2023-03-16T00:10:43;25.73;;;9.00;;
17858;SDS011;35426;30.698;104.050;2023-03-16T00:13:19;33.07;;;9.37;;
17858;SDS011;35426;30.698;104.050;2023-03-16T00:16:00;22.37;;;8.57;;
17858;SDS011;35426;30.698;104.050;2023-03-16T00:18:42;32.30;;;8.83;;
17858;SDS011;35426;30.698;104.050;2023-03-16T00:21:20;20.13;;;7.37;;
17858;SDS011;35426;30.698;104.050;2023-03-16T00:23:57;25.23;;;8.97;;
17858;SDS011;35426;30.698;104.050;2023-03-16T00:26:34;22.73;;;8.33;;
17858;SDS011;35426;30.698;104.050;2023-03-16T00:29:15;30.33;;;8.73;;
17858;SDS011;35426;30.698;104.050;2023-03-16T00:31:52;26.43;;;8.33;;
17858;SDS011;35426;30.698;104.050;2023-03-16T00:34:39;25.13;;;8.47;;
17858;SDS011;35426;30.698;104.050;2023-03-16T00:37:16;27.10;;;8.60;;
17858;SDS011;35426;30.698;104.050;2023-03-16T00:40:00;28.97;;;8.37;;
17858;SDS011;35426;30.698;104.050;2023-03-16T00:42:38;29.87;;;8.60;;
17858;SDS011;35426;30.698;104.050;2023-03-16T00:45:18;24.10;;;8.33;;
17858;SDS011;35426;30.698;104.050;2023-03-16T00:47:55;27.90;;;8.33;;
17858;SDS011;35426;30.698;104.050;2023-03-16T00:50:36;27.67;;;8.47;;
17858;SDS011;35426;30.698;104.050;2023-03-16T00:53:13;23.13;;;8.33;;
17858;SDS011;35426;30.698;104.050;2023-03-16T00:55:52;32.37;;;9.33;;
17858;SDS011;35426;30.698;104.050;2023-03-16T00:58:34;31.27;;;9.50;;
17858;SDS011;35426;30.698;104.050;2023-03-16T01:01:16;33.87;;;9.43;;
17858;SDS011;35426;30.698;104.050;2023-03-16T01:03:55;28.43;;;9.17;;
17858;SDS011;35426;30.698;104.050;2023-03-16T01:06:41;30.03;;;9.03;;
17858;SDS011;35426;30.698;104.050;2023-03-16T01:09:21;24.50;;;8.60;;
17858;SDS011;35426;30.698;104.050;2023-03-16T01:11:58;30.97;;;9.10;;
17858;SDS011;35426;30.698;104.050;2023-03-16T01:14:35;27.23;;;8.80;;
17858;SDS011;35426;30.698;104.050;2023-03-16T01:17:17;23.87;;;8.40;;
17858;SDS011;35426;30.698;104.050;2023-03-16T01:20:07;24.77;;;8.73;;
17858;SDS011;35426;30.698;104.050;2023-03-16T01:22:51;28.83;;;8.47;;
17858;SDS011;35426;30.698;104.050;2023-03-16T01:25:29;21.33;;;8.07;;
17858;SDS011;35426;30.698;104.050;2023-03-16T01:28:06;25.13;;;8.73;;
17858;SDS011;35426;30.698;104.050;2023-03-16T01:30:44;22.60;;;7.20;;
17858;SDS011;35426;30.698;104.050;2023-03-16T01:33:26;23.20;;;7.43;;
17858;SDS011;35426;30.698;104.050;2023-03-16T01:36:12;25.67;;;7.80;;
17858;SDS011;35426;30.698;104.050;2023-03-16T01:39:06;24.90;;;7.67;;
17858;SDS011;35426;30.698;104.050;2023-03-16T01:41:46;27.07;;;7.43;;
17858;SDS011;35426;30.698;104.050;2023-03-16T01:44:24;29.17;;;7.43;;
17858;SDS011;35426;30.698;104.050;2023-03-16T01:47:07;18.63;;;7.73;;
17858;SDS011;35426;30.698;104.050;2023-03-16T01:49:45;16.90;;;5.00;;
17858;SDS011;35426;30.698;104.050;2023-03-16T01:52:37;14.30;;;5.60;;
17858;SDS011;35426;30.698;104.050;2023-03-16T01:55:18;17.07;;;5.77;;
17858;SDS011;35426;30.698;104.050;2023-03-16T01:58:05;17.60;;;5.13;;
17858;SDS011;35426;30.698;104.050;2023-03-16T02:00:46;18.70;;;5.77;;
17858;SDS011;35426;30.698;104.050;2023-03-16T02:03:28;16.50;;;5.80;;
17858;SDS011;35426;30.698;104.050;2023-03-16T02:06:17;24.27;;;5.60;;
17858;SDS011;35426;30.698;104.050;2023-03-16T02:09:03;18.97;;;5.53;;
17858;SDS011;35426;30.698;104.050;2023-03-16T02:11:45;23.00;;;5.43;;
17858;SDS011;35426;30.698;104.050;2023-03-16T02:14:27;20.97;;;5.93;;
17858;SDS011;35426;30.698;104.050;2023-03-16T02:17:13;25.73;;;6.23;;
17858;SDS011;35426;30.698;104.050;2023-03-16T02:20:01;14.03;;;4.60;;
17858;SDS011;35426;30.698;104.050;2023-03-16T02:22:48;16.40;;;5.40;;
17858;SDS011;35426;30.698;104.050;2023-03-16T02:25:37;21.43;;;5.73;;
17858;SDS011;35426;30.698;104.050;2023-03-16T02:28:35;16.03;;;5.33;;
17858;SDS011;35426;30.698;104.050;2023-03-16T02:31:28;17.27;;;5.10;;
17858;SDS011;35426;30.698;104.050;2023-03-16T02:34:25;21.63;;;6.37;;
17858;SDS011;35426;30.698;104.050;2023-03-16T02:37:06;17.13;;;5.57;;
17858;SDS011;35426;30.698;104.050;2023-03-16T02:39:52;17.53;;;6.60;;
17858;SDS011;35426;30.698;104.050;2023-03-16T02:42:29;22.60;;;6.67;;
17858;SDS011;35426;30.698;104.050;2023-03-16T02:45:06;26.23;;;6.73;;
17858;SDS011;35426;30.698;104.050;2023-03-16T02:47:52;22.93;;;6.77;;
17858;SDS011;35426;30.698;104.050;2023-03-16T02:50:32;18.70;;;7.13;;
17858;SDS011;35426;30.698;104.050;2023-03-16T02:53:09;22.87;;;6.80;;
17858;SDS011;35426;30.698;104.050;2023-03-16T02:56:01;19.73;;;6.80;;
17858;SDS011;35426;30.698;104.050;2023-03-16T02:58:50;26.73;;;6.73;;
17858;SDS011;35426;30.698;104.050;2023-03-16T03:01:29;21.73;;;6.63;;
17858;SDS011;35426;30.698;104.050;2023-03-16T03:04:16;20.80;;;6.83;;
17858;SDS011;35426;30.698;104.050;2023-03-16T03:07:02;19.43;;;7.00;;
17858;SDS011;35426;30.698;104.050;2023-03-16T03:09:58;19.73;;;7.00;;
17858;SDS011;35426;30.698;104.050;2023-03-16T03:12:39;24.63;;;6.87;;
17858;SDS011;35426;30.698;104.050;2023-03-16T03:15:20;30.73;;;6.80;;
17858;SDS011;35426;30.698;104.050;2023-03-16T03:18:06;20.00;;;6.83;;
17858;SDS011;35426;30.698;104.050;2023-03-16T03:20:59;20.27;;;6.60;;
17858;SDS011;35426;30.698;104.050;2023-03-16T03:23:43;19.37;;;6.20;;
17858;SDS011;35426;30.698;104.050;2023-03-16T03:26:26;21.77;;;6.47;;
17858;SDS011;35426;30.698;104.050;2023-03-16T03:29:11;16.70;;;6.27;;
17858;SDS011;35426;30.698;104.050;2023-03-16T03:31:55;18.77;;;6.27;;
17858;SDS011;35426;30.698;104.050;2023-03-16T03:34:40;22.83;;;6.70;;
17858;SDS011;35426;30.698;104.050;2023-03-16T03:37:22;20.20;;;6.90;;
17858;SDS011;35426;30.698;104.050;2023-03-16T03:40:07;25.63;;;7.00;;
17858;SDS011;35426;30.698;104.050;2023-03-16T03:42:57;23.30;;;7.40;;
17858;SDS011;35426;30.698;104.050;2023-03-16T03:45:40;19.87;;;6.70;;
17858;SDS011;35426;30.698;104.050;2023-03-16T03:48:22;18.20;;;6.80;;
17858;SDS011;35426;30.698;104.050;2023-03-16T03:51:02;19.57;;;6.50;;
17858;SDS011;35426;30.698;104.050;2023-03-16T03:53:57;17.97;;;6.00;;
17858;SDS011;35426;30.698;104.050;2023-03-16T03:57:12;15.13;;;6.47;;
17858;SDS011;35426;30.698;104.050;2023-03-16T03:59:53;26.13;;;8.00;;
17858;SDS011;35426;30.698;104.050;2023-03-16T04:02:43;27.77;;;9.60;;
17858;SDS011;35426;30.698;104.050;2023-03-16T04:05:34;23.13;;;7.93;;
17858;SDS011;35426;30.698;104.050;2023-03-16T04:08:13;20.60;;;7.63;;
17858;SDS011;35426;30.698;104.050;2023-03-16T04:11:06;23.47;;;8.30;;
17858;SDS011;35426;30.698;104.050;2023-03-16T04:13:50;27.73;;;8.20;;
17858;SDS011;35426;30.698;104.050;2023-03-16T04:16:31;19.53;;;7.10;;
17858;SDS011;35426;30.698;104.050;2023-03-16T04:19:14;20.80;;;7.70;;
17858;SDS011;35426;30.698;104.050;2023-03-16T04:21:53;21.00;;;8.77;;
17858;SDS011;35426;30.698;104.050;2023-03-16T04:24:35;23.13;;;8.27;;
17858;SDS011;35426;30.698;104.050;2023-03-16T04:27:16;15.83;;;7.77;;
17858;SDS011;35426;30.698;104.050;2023-03-16T04:29:59;18.47;;;7.67;;
17858;SDS011;35426;30.698;104.050;2023-03-16T04:32:54;22.83;;;8.43;;
17858;SDS011;35426;30.698;104.050;2023-03-16T04:35:31;23.13;;;8.27;;
17858;SDS011;35426;30.698;104.050;2023-03-16T04:38:14;23.27;;;8.53;;
17858;SDS011;35426;30.698;104.050;2023-03-16T04:41:12;21.23;;;8.77;;
17858;SDS011;35426;30.698;104.050;2023-03-16T04:44:14;23.80;;;8.87;;
17858;SDS011;35426;30.698;104.050;2023-03-16T04:47:05;26.97;;;9.83;;
17858;SDS011;35426;30.698;104.050;2023-03-16T04:49:50;23.60;;;8.90;;
17858;SDS011;35426;30.698;104.050;2023-03-16T04:52:43;24.77;;;10.07;;
17858;SDS011;35426;30.698;104.050;2023-03-16T04:55:23;25.17;;;10.33;;
17858;SDS011;35426;30.698;104.050;2023-03-16T04:58:04;28.00;;;9.50;;
17858;SDS011;35426;30.698;104.050;2023-03-16T05:00:57;23.03;;;9.27;;
17858;SDS011;35426;30.698;104.050;2023-03-16T05:03:42;26.37;;;9.30;;
17858;SDS011;35426;30.698;104.050;2023-03-16T05:06:33;22.70;;;9.00;;
17858;SDS011;35426;30.698;104.050;2023-03-16T05:09:17;22.87;;;9.00;;
17858;SDS011;35426;30.698;104.050;2023-03-16T05:11:57;27.50;;;9.10;;
17858;SDS011;35426;30.698;104.050;2023-03-16T05:14:44;24.90;;;10.23;;
17858;SDS011;35426;30.698;104.050;2023-03-16T05:17:55;30.60;;;11.40;;
17858;SDS011;35426;30.698;104.050;2023-03-16T05:20:34;24.23;;;10.67;;
17858;SDS011;35426;30.698;104.050;2023-03-16T05:23:15;32.03;;;11.00;;
17858;SDS011;35426;30.698;104.050;2023-03-16T05:26:01;29.87;;;11.10;;
17858;SDS011;35426;30.698;104.050;2023-03-16T05:28:41;29.43;;;11.50;;
17858;SDS011;35426;30.698;104.050;2023-03-16T05:31:23;32.10;;;12.23;;
17858;SDS011;35426;30.698;104.050;2023-03-16T05:34:11;37.67;;;12.87;;
17858;SDS011;35426;30.698;104.050;2023-03-16T05:36:50;32.80;;;12.40;;
17858;SDS011;35426;30.698;104.050;2023-03-16T05:39:34;36.93;;;12.77;;
17858;SDS011;35426;30.698;104.050;2023-03-16T05:42:13;33.10;;;13.23;;
17858;SDS011;35426;30.698;104.050;2023-03-16T05:45:00;29.73;;;12.57;;
17858;SDS011;35426;30.698;104.050;2023-03-16T05:47:48;29.20;;;11.97;;
17858;SDS011;35426;30.698;104.050;2023-03-16T05:50:30;34.47;;;12.90;;
17858;SDS011;35426;30.698;104.050;2023-03-16T05:53:16;29.97;;;12.40;;
17858;SDS011;35426;30.698;104.050;2023-03-16T05:56:17;34.20;;;12.20;;
17858;SDS011;35426;30.698;104.050;2023-03-16T05:58:54;32.23;;;12.23;;
17858;SDS011;35426;30.698;104.050;2023-03-16T06:01:32;28.83;;;13.07;;
17858;SDS011;35426;30.698;104.050;2023-03-16T06:04:31;31.00;;;13.77;;
17858;SDS011;35426;30.698;104.050;2023-03-16T06:07:22;29.00;;;13.03;;
17858;SDS011;35426;30.698;104.050;2023-03-16T06:10:21;37.27;;;13.57;;
17858;SDS011;35426;30.698;104.050;2023-03-16T06:13:04;30.47;;;13.60;;
17858;SDS011;35426;30.698;104.050;2023-03-16T06:16:03;33.13;;;13.87;;
17858;SDS011;35426;30.698;104.050;2023-03-16T06:18:49;35.83;;;14.23;;
17858;SDS011;35426;30.698;104.050;2023-03-16T06:21:38;33.93;;;13.77;;
17858;SDS011;35426;30.698;104.050;2023-03-16T06:24:24;39.77;;;13.87;;
17858;SDS011;35426;30.698;104.050;2023-03-16T06:27:03;38.23;;;15.03;;
17858;SDS011;35426;30.698;104.050;2023-03-16T06:30:09;35.60;;;13.13;;
17858;SDS011;35426;30.698;104.050;2023-03-16T06:32:52;29.73;;;12.60;;
17858;SDS011;35426;30.698;104.050;2023-03-16T06:35:32;34.07;;;13.63;;
17858;SDS011;35426;30.698;104.050;2023-03-16T06:38:20;38.90;;;13.27;;
17858;SDS011;35426;30.698;104.050;2023-03-16T06:41:11;34.47;;;12.73;;
17858;SDS011;35426;30.698;104.050;2023-03-16T06:44:15;35.77;;;14.07;;
17858;SDS011;35426;30.698;104.050;2023-03-16T06:47:05;33.87;;;14.13;;
17858;SDS011;35426;30.698;104.050;2023-03-16T06:49:44;31.00;;;14.50;;
17858;SDS011;35426;30.698;104.050;2023-03-16T06:52:53;39.97;;;14.13;;
17858;SDS011;35426;30.698;104.050;2023-03-16T06:55:34;33.77;;;14.17;;
17858;SDS011;35426;30.698;104.050;2023-03-16T06:58:14;34.90;;;13.17;;
17858;SDS011;35426;30.698;104.050;2023-03-16T07:00:52;37.67;;;13.47;;
17858;SDS011;35426;30.698;104.050;2023-03-16T07:03:30;38.37;;;12.93;;
17858;SDS011;35426;30.698;104.050;2023-03-16T07:06:20;35.60;;;13.67;;
17858;SDS011;35426;30.698;104.050;2023-03-16T07:09:00;30.53;;;12.97;;
17858;SDS011;35426;30.698;104.050;2023-03-16T07:11:39;37.87;;;13.33;;
17858;SDS011;35426;30.698;104.050;2023-03-16T07:14:19;33.33;;;13.80;;
17858;SDS011;35426;30.698;104.050;2023-03-16T07:17:02;36.93;;;12.57;;
17858;SDS011;35426;30.698;104.050;2023-03-16T07:19:45;36.30;;;13.07;;
17858;SDS011;35426;30.698;104.050;2023-03-16T07:22:24;33.00;;;12.27;;
17858;SDS011;35426;30.698;104.050;2023-03-16T07:25:09;33.37;;;11.13;;
17858;SDS011;35426;30.698;104.050;2023-03-16T07:27:53;29.43;;;11.80;;
17858;SDS011;35426;30.698;104.050;2023-03-16T07:30:39;30.00;;;12.97;;
17858;SDS011;35426;30.698;104.050;2023-03-16T07:33:42;33.40;;;12.53;;
17858;SDS011;35426;30.698;104.050;2023-03-16T07:36:31;27.30;;;11.70;;
17858;SDS011;35426;30.698;104.050;2023-03-16T07:39:11;27.40;;;10.30;;
17858;SDS011;35426;30.698;104.050;2023-03-16T07:41:59;34.17;;;10.83;;
17858;SDS011;35426;30.698;104.050;2023-03-16T07:44:59;30.70;;;11.67;;
17858;SDS011;35426;30.698;104.050;2023-03-16T07:47:36;28.23;;;11.17;;
17858;SDS011;35426;30.698;104.050;2023-03-16T07:50:22;27.97;;;11.63;;
17858;SDS011;35426;30.698;104.050;2023-03-16T07:53:00;29.00;;;11.57;;
17858;SDS011;35426;30.698;104.050;2023-03-16T07:55:45;24.00;;;9.27;;
17858;SDS011;35426;30.698;104.050;2023-03-16T07:58:26;21.83;;;10.00;;
17858;SDS011;35426;30.698;104.050;2023-03-16T08:01:04;29.07;;;9.20;;
17858;SDS011;35426;30.698;104.050;2023-03-16T08:03:48;23.60;;;9.27;;
17858;SDS011;35426;30.698;104.050;2023-03-16T08:06:33;27.03;;;9.70;;
17858;SDS011;35426;30.698;104.050;2023-03-16T08:09:12;38.27;;;15.10;;
17858;SDS011;35426;30.698;104.050;2023-03-16T08:11:52;32.70;;;13.27;;
17858;SDS011;35426;30.698;104.050;2023-03-16T08:14:39;34.33;;;13.67;;
17858;SDS011;35426;30.698;104.050;2023-03-16T08:17:25;29.17;;;12.87;;
17858;SDS011;35426;30.698;104.050;2023-03-16T08:20:10;31.20;;;12.93;;
17858;SDS011;35426;30.698;104.050;2023-03-16T08:22:48;32.17;;;12.67;;
17858;SDS011;35426;30.698;104.050;2023-03-16T08:25:35;30.77;;;13.03;;
17858;SDS011;35426;30.698;104.050;2023-03-16T08:28:18;36.77;;;13.27;;
17858;SDS011;35426;30.698;104.050;2023-03-16T08:31:02;32.70;;;12.50;;
17858;SDS011;35426;30.698;104.050;2023-03-16T08:34:00;27.43;;;11.87;;
17858;SDS011;35426;30.698;104.050;2023-03-16T08:36:43;32.93;;;11.80;;
17858;SDS011;35426;30.698;104.050;2023-03-16T08:39:33;35.87;;;11.60;;
17858;SDS011;35426;30.698;104.050;2023-03-16T08:42:17;31.93;;;13.50;;
17858;SDS011;35426;30.698;104.050;2023-03-16T08:45:03;32.70;;;13.07;;
17858;SDS011;35426;30.698;104.050;2023-03-16T08:47:46;35.83;;;12.30;;
17858;SDS011;35426;30.698;104.050;2023-03-16T08:50:27;33.53;;;12.83;;
17858;SDS011;35426;30.698;104.050;2023-03-16T08:53:09;36.80;;;12.50;;
17858;SDS011;35426;30.698;104.050;2023-03-16T08:56:00;38.93;;;13.33;;
17858;SDS011;35426;30.698;104.050;2023-03-16T08:58:42;34.50;;;11.33;;
17858;SDS011;35426;30.698;104.050;2023-03-16T09:01:21;24.83;;;11.80;;
17858;SDS011;35426;30.698;104.050;2023-03-16T09:04:11;27.27;;;10.27;;
17858;SDS011;35426;30.698;104.050;2023-03-16T09:06:55;27.37;;;10.57;;
17858;SDS011;35426;30.698;104.050;2023-03-16T09:09:42;28.00;;;9.87;;
17858;SDS011;35426;30.698;104.050;2023-03-16T09:12:20;30.73;;;9.43;;
17858;SDS011;35426;30.698;104.050;2023-03-16T09:15:03;31.57;;;10.53;;
17858;SDS011;35426;30.698;104.050;2023-03-16T09:17:58;32.50;;;10.33;;
17858;SDS011;35426;30.698;104.050;2023-03-16T09:21:30;40.13;;;12.00;;
17858;SDS011;35426;30.698;104.050;2023-03-16T09:24:21;36.23;;;11.23;;
17858;SDS011;35426;30.698;104.050;2023-03-16T09:27:10;37.17;;;12.47;;
17858;SDS011;35426;30.698;104.050;2023-03-16T09:29:55;38.40;;;12.93;;
17858;SDS011;35426;30.698;104.050;2023-03-16T09:37:41;38.83;;;12.17;;
17858;SDS011;35426;30.698;104.050;2023-03-16T09:40:44;37.00;;;12.60;;
17858;SDS011;35426;30.698;104.050;2023-03-16T09:44:01;33.50;;;12.47;;
17858;SDS011;35426;30.698;104.050;2023-03-16T09:47:16;29.67;;;12.03;;
17858;SDS011;35426;30.698;104.050;2023-03-16T09:50:27;31.50;;;12.20;;
17858;SDS011;35426;30.698;104.050;2023-03-16T09:57:04;32.60;;;12.00;;
17858;SDS011;35426;30.698;104.050;2023-03-16T10:00:22;42.33;;;12.47;;
17858;SDS011;35426;30.698;104.050;2023-03-16T10:03:29;37.97;;;13.03;;
17858;SDS011;35426;30.698;104.050;2023-03-16T10:06:39;45.57;;;12.40;;
17858;SDS011;35426;30.698;104.050;2023-03-16T10:09:27;37.77;;;12.30;;
17858;SDS011;35426;30.698;104.050;2023-03-16T10:12:23;30.37;;;12.53;;
17858;SDS011;35426;30.698;104.050;2023-03-16T10:15:05;31.57;;;11.80;;
17858;SDS011;35426;30.698;104.050;2023-03-16T10:17:48;31.83;;;11.90;;
17858;SDS011;35426;30.698;104.050;2023-03-16T10:20:32;45.63;;;12.37;;
17858;SDS011;35426;30.698;104.050;2023-03-16T10:23:14;39.37;;;13.40;;
17858;SDS011;35426;30.698;104.050;2023-03-16T10:26:01;36.17;;;13.23;;
17858;SDS011;35426;30.698;104.050;2023-03-16T10:28:58;39.17;;;12.20;;
17858;SDS011;35426;30.698;104.050;2023-03-16T10:31:37;41.17;;;13.67;;
17858;SDS011;35426;30.698;104.050;2023-03-16T10:34:17;43.23;;;14.10;;
17858;SDS011;35426;30.698;104.050;2023-03-16T10:36:55;33.73;;;13.53;;
17858;SDS011;35426;30.698;104.050;2023-03-16T10:39:35;43.73;;;15.27;;
17858;SDS011;35426;30.698;104.050;2023-03-16T10:42:14;36.33;;;14.53;;
17858;SDS011;35426;30.698;104.050;2023-03-16T10:45:02;32.83;;;13.93;;
17858;SDS011;35426;30.698;104.050;2023-03-16T10:47:53;39.83;;;14.60;;
17858;SDS011;35426;30.698;104.050;2023-03-16T10:50:41;35.83;;;14.13;;
17858;SDS011;35426;30.698;104.050;2023-03-16T10:53:22;42.10;;;14.67;;
17858;SDS011;35426;30.698;104.050;2023-03-16T10:56:09;37.40;;;13.10;;
17858;SDS011;35426;30.698;104.050;2023-03-16T10:58:49;33.97;;;14.83;;
17858;SDS011;35426;30.698;104.050;2023-03-16T11:01:38;43.53;;;14.23;;
17858;SDS011;35426;30.698;104.050;2023-03-16T11:04:20;41.53;;;13.23;;
17858;SDS011;35426;30.698;104.050;2023-03-16T11:07:14;43.90;;;12.93;;
17858;SDS011;35426;30.698;104.050;2023-03-16T11:09:57;40.80;;;12.47;;
17858;SDS011;35426;30.698;104.050;2023-03-16T11:12:34;50.17;;;12.30;;
17858;SDS011;35426;30.698;104.050;2023-03-16T11:15:12;56.73;;;11.73;;
17858;SDS011;35426;30.698;104.050;2023-03-16T11:18:02;44.23;;;11.67;;
17858;SDS011;35426;30.698;104.050;2023-03-16T11:20:47;41.83;;;11.57;;
17858;SDS011;35426;30.698;104.050;2023-03-16T11:23:28;52.60;;;12.77;;
17858;SDS011;35426;30.698;104.050;2023-03-16T11:26:09;39.37;;;10.77;;
17858;SDS011;35426;30.698;104.050;2023-03-16T11:28:56;38.60;;;11.00;;
17858;SDS011;35426;30.698;104.050;2023-03-16T11:31:42;45.53;;;11.93;;
17858;SDS011;35426;30.698;104.050;2023-03-16T11:34:35;36.37;;;11.63;;
17858;SDS011;35426;30.698;104.050;2023-03-16T11:37:13;38.10;;;11.20;;
17858;SDS011;35426;30.698;104.050;2023-03-16T11:40:05;37.27;;;10.90;;
17858;SDS011;35426;30.698;104.050;2023-03-16T11:42:55;46.47;;;12.10;;
17858;SDS011;35426;30.698;104.050;2023-03-16T11:45:43;42.77;;;12.50;;
17858;SDS011;35426;30.698;104.050;2023-03-16T11:48:28;43.70;;;12.30;;
17858;SDS011;35426;30.698;104.050;2023-03-16T11:51:17;48.70;;;12.30;;
17858;SDS011;35426;30.698;104.050;2023-03-16T11:54:15;43.97;;;11.67;;
17858;SDS011;35426;30.698;104.050;2023-03-16T11:57:13;41.80;;;11.90;;
17858;SDS011;35426;30.698;104.050;2023-03-16T12:00:18;46.27;;;11.43;;
17858;SDS011;35426;30.698;104.050;2023-03-16T12:03:23;47.53;;;12.87;;
17858;SDS011;35426;30.698;104.050;2023-03-16T12:06:20;45.70;;;12.10;;
17858;SDS011;35426;30.698;104.050;2023-03-16T12:09:07;44.97;;;12.57;;
17858;SDS011;35426;30.698;104.050;2023-03-16T12:12:12;37.80;;;11.53;;
17858;SDS011;35426;30.698;104.050;2023-03-16T12:18:18;42.80;;;12.30;;
17858;SDS011;35426;30.698;104.050;2023-03-16T12:21:00;39.37;;;11.93;;
17858;SDS011;35426;30.698;104.050;2023-03-16T12:23:53;44.90;;;13.03;;
17858;SDS011;35426;30.698;104.050;2023-03-16T12:26:37;42.80;;;13.17;;
17858;SDS011;35426;30.698;104.050;2023-03-16T12:32:18;42.30;;;13.93;;
17858;SDS011;35426;30.698;104.050;2023-03-16T12:35:19;47.97;;;14.03;;
17858;SDS011;35426;30.698;104.050;2023-03-16T12:38:12;48.03;;;14.20;;
17858;SDS011;35426;30.698;104.050;2023-03-16T12:41:21;53.50;;;15.90;;
17858;SDS011;35426;30.698;104.050;2023-03-16T12:44:14;51.87;;;15.87;;
17858;SDS011;35426;30.698;104.050;2023-03-16T12:47:02;41.07;;;15.60;;
17858;SDS011;35426;30.698;104.050;2023-03-16T12:49:48;56.00;;;17.57;;
17858;SDS011;35426;30.698;104.050;2023-03-16T12:52:39;47.97;;;16.83;;
17858;SDS011;35426;30.698;104.050;2023-03-16T12:55:23;53.63;;;18.47;;
17858;SDS011;35426;30.698;104.050;2023-03-16T12:58:17;46.90;;;17.63;;
17858;SDS011;35426;30.698;104.050;2023-03-16T13:01:10;54.57;;;18.93;;
17858;SDS011;35426;30.698;104.050;2023-03-16T13:03:59;52.67;;;19.30;;
17858;SDS011;35426;30.698;104.050;2023-03-16T13:06:51;53.00;;;19.67;;
17858;SDS011;35426;30.698;104.050;2023-03-16T13:09:45;57.93;;;19.57;;
17858;SDS011;35426;30.698;104.050;2023-03-16T13:12:28;57.80;;;20.73;;
17858;SDS011;35426;30.698;104.050;2023-03-16T13:15:28;55.13;;;20.40;;
17858;SDS011;35426;30.698;104.050;2023-03-16T13:18:20;62.77;;;20.53;;
17858;SDS011;35426;30.698;104.050;2023-03-16T13:21:12;57.80;;;20.87;;
17858;SDS011;35426;30.698;104.050;2023-03-16T13:24:11;48.87;;;18.97;;
17858;SDS011;35426;30.698;104.050;2023-03-16T13:27:05;59.37;;;19.97;;
17858;SDS011;35426;30.698;104.050;2023-03-16T13:29:59;54.93;;;18.30;;
17858;SDS011;35426;30.698;104.050;2023-03-16T13:32:59;52.60;;;18.70;;
17858;SDS011;35426;30.698;104.050;2023-03-16T13:35:52;46.73;;;20.10;;
17858;SDS011;35426;30.698;104.050;2023-03-16T13:38:36;43.17;;;16.90;;
17858;SDS011;35426;30.698;104.050;2023-03-16T13:41:19;41.30;;;17.33;;
17858;SDS011;35426;30.698;104.050;2023-03-16T13:43:59;41.83;;;17.47;;
17858;SDS011;35426;30.698;104.050;2023-03-16T13:46:47;46.63;;;17.27;;
17858;SDS011;35426;30.698;104.050;2023-03-16T13:49:26;45.47;;;17.30;;
17858;SDS011;35426;30.698;104.050;2023-03-16T13:52:14;42.83;;;17.27;;
17858;SDS011;35426;30.698;104.050;2023-03-16T13:54:57;45.40;;;16.33;;
17858;SDS011;35426;30.698;104.050;2023-03-16T13:57:39;41.10;;;15.80;;
17858;SDS011;35426;30.698;104.050;2023-03-16T14:00:21;45.87;;;17.80;;
17858;SDS011;35426;30.698;104.050;2023-03-16T14:03:07;41.77;;;17.07;;
17858;SDS011;35426;30.698;104.050;2023-03-16T14:05:59;42.03;;;15.87;;
17858;SDS011;35426;30.698;104.050;2023-03-16T14:08:37;35.03;;;15.23;;
17858;SDS011;35426;30.698;104.050;2023-03-16T14:11:25;40.13;;;15.37;;
17858;SDS011;35426;30.698;104.050;2023-03-16T14:14:11;49.10;;;16.13;;
17858;SDS011;35426;30.698;104.050;2023-03-16T14:17:00;31.13;;;15.57;;
17858;SDS011;35426;30.698;104.050;2023-03-16T14:19:51;51.43;;;17.33;;
17858;SDS011;35426;30.698;104.050;2023-03-16T14:22:42;42.57;;;17.83;;
17858;SDS011;35426;30.698;104.050;2023-03-16T14:25:23;45.40;;;18.10;;
17858;SDS011;35426;30.698;104.050;2023-03-16T14:28:05;45.10;;;18.17;;
17858;SDS011;35426;30.698;104.050;2023-03-16T14:30:52;40.57;;;17.60;;
17858;SDS011;35426;30.698;104.050;2023-03-16T14:33:41;45.50;;;17.80;;
17858;SDS011;35426;30.698;104.050;2023-03-16T14:36:32;42.87;;;17.53;;
17858;SDS011;35426;30.698;104.050;2023-03-16T14:39:34;47.00;;;17.13;;
17858;SDS011;35426;30.698;104.050;2023-03-16T14:42:28;50.63;;;18.50;;
17858;SDS011;35426;30.698;104.050;2023-03-16T14:45:09;49.27;;;20.00;;
17858;SDS011;35426;30.698;104.050;2023-03-16T14:47:52;47.63;;;17.30;;
17858;SDS011;35426;30.698;104.050;2023-03-16T14:50:49;52.43;;;17.73;;
17858;SDS011;35426;30.698;104.050;2023-03-16T14:53:35;57.93;;;17.27;;
17858;SDS011;35426;30.698;104.050;2023-03-16T14:56:21;51.63;;;17.53;;
17858;SDS011;35426;30.698;104.050;2023-03-16T14:59:11;44.00;;;17.17;;
17858;SDS011;35426;30.698;104.050;2023-03-16T15:01:50;49.30;;;17.80;;
17858;SDS011;35426;30.698;104.050;2023-03-16T15:04:35;46.00;;;16.97;;
17858;SDS011;35426;30.698;104.050;2023-03-16T15:07:26;46.03;;;16.90;;
17858;SDS011;35426;30.698;104.050;2023-03-16T15:10:24;41.50;;;17.27;;
17858;SDS011;35426;30.698;104.050;2023-03-16T15:13:20;44.47;;;17.37;;
17858;SDS011;35426;30.698;104.050;2023-03-16T15:16:23;46.67;;;17.70;;
17858;SDS011;35426;30.698;104.050;2023-03-16T15:19:14;47.73;;;18.73;;
17858;SDS011;35426;30.698;104.050;2023-03-16T15:21:55;49.33;;;18.67;;
17858;SDS011;35426;30.698;104.050;2023-03-16T15:24:44;49.43;;;17.93;;
17858;SDS011;35426;30.698;104.050;2023-03-16T15:27:27;47.07;;;18.07;;
17858;SDS011;35426;30.698;104.050;2023-03-16T15:30:17;45.60;;;18.67;;
17858;SDS011;35426;30.698;104.050;2023-03-16T15:33:01;50.87;;;18.47;;
17858;SDS011;35426;30.698;104.050;2023-03-16T15:35:39;49.50;;;19.70;;
17858;SDS011;35426;30.698;104.050;2023-03-16T15:38:21;50.37;;;20.50;;
17858;SDS011;35426;30.698;104.050;2023-03-16T15:41:02;41.63;;;18.80;;
17858;SDS011;35426;30.698;104.050;2023-03-16T15:43:57;54.47;;;19.27;;
17858;SDS011;35426;30.698;104.050;2023-03-16T15:46:39;43.00;;;19.03;;
17858;SDS011;35426;30.698;104.050;2023-03-16T15:49:21;52.87;;;20.60;;
17858;SDS011;35426;30.698;104.050;2023-03-16T15:52:16;43.87;;;18.40;;
17858;SDS011;35426;30.698;104.050;2023-03-16T15:55:08;53.20;;;18.87;;
17858;SDS011;35426;30.698;104.050;2023-03-16T15:57:55;53.27;;;18.63;;
17858;SDS011;35426;30.698;104.050;2023-03-16T16:00:42;52.10;;;18.77;;
17858;SDS011;35426;30.698;104.050;2023-03-16T16:03:33;48.17;;;19.53;;
17858;SDS011;35426;30.698;104.050;2023-03-16T16:06:17;48.77;;;18.97;;